Time;durP1;ratioP1;P1;durP2;ratioP2;P2;SDS_P1;SDS_P2;PMS_P1;PMS_P2;Temp;Humidity;BMP_temperature;BMP_pressure;BME280_temperature;BME280_humidity;BME280_pressure;Samples;Min_cycle;Max_cycle;Signal;HPM_P1;HPM_P2
2021/10/06 00:02:08;;;;;;;24.92;13.50;;;;;;;8.50;75.26;144346.08;1800784;79;22156;-67
2021/10/06 00:04:49;;;;;;;26.87;13.25;;;;;;;8.45;75.43;144336.09;1834327;77;22156;-66
2021/10/06 00:07:24;;;;;;;28.52;12.78;;;;;;;8.44;75.56;144333.56;1835056;77;22124;-66
2021/10/06 00:09:59;;;;;;;24.20;13.15;;;;;;;8.40;75.71;144322.33;1835053;77;22120;-65
2021/10/06 00:12:34;;;;;;;22.55;13.72;;;;;;;8.38;75.92;144318.50;1835036;77;22161;-66
2021/10/06 00:15:12;;;;;;;21.45;13.08;;;;;;;8.37;76.00;144316.03;1837838;77;27987;-65
2021/10/06 00:17:45;;;;;;;20.23;14.20;;;;;;;8.37;76.27;144316.03;1819634;77;28416;-66
2021/10/06 00:20:20;;;;;;;24.45;12.88;;;;;;;8.38;76.32;144318.50;1837859;77;28427;-66
2021/10/06 00:22:55;;;;;;;21.62;12.80;;;;;;;8.38;76.37;144318.50;1834965;77;22136;-67
2021/10/06 00:25:30;;;;;;;25.68;13.68;;;;;;;8.35;76.48;144311.00;1835000;77;22567;-65
2021/10/06 00:28:05;;;;;;;24.77;13.50;;;;;;;8.32;76.61;144303.50;1835085;77;22571;-66
2021/10/06 00:30:59;;;;;;;21.75;13.18;;;;;;;8.28;76.92;144293.47;1853543;77;22124;-66
2021/10/06 00:33:34;;;;;;;20.80;12.60;;;;;;;8.25;77.39;144285.97;1853565;77;22575;-66
2021/10/06 00:36:34;;;;;;;25.72;12.90;;;;;;;8.22;77.63;144278.47;1853417;77;22154;-66
2021/10/06 00:39:30;;;;;;;23.98;12.75;;;;;;;8.19;78.02;144270.92;1834781;77;22173;-65
2021/10/06 00:42:24;;;;;;;27.65;14.20;;;;;;;8.19;78.09;144270.92;1834914;77;22568;-65
2021/10/06 00:44:59;;;;;;;23.62;15.45;;;;;;;8.18;78.27;144268.44;1835014;77;22128;-66
2021/10/06 00:47:35;;;;;;;23.80;14.18;;;;;;;8.16;78.38;144263.42;1853508;77;22143;-66
2021/10/06 00:50:10;;;;;;;25.10;13.88;;;;;;;8.13;78.62;144257.16;1819391;77;28039;-65
2021/10/06 00:53:07;;;;;;;21.50;13.90;;;;;;;8.15;78.60;144260.94;1837772;77;28459;-66
2021/10/06 00:56:01;;;;;;;20.08;13.00;;;;;;;8.16;78.66;144263.42;1835052;77;22592;-66
2021/10/06 00:58:36;;;;;;;21.40;12.55;;;;;;;8.11;78.89;144252.14;1834971;77;22617;-66
2021/10/06 01:01:14;;;;;;;21.15;12.98;;;;;;;8.09;78.98;144245.87;1834980;77;22563;-65
2021/10/06 01:03:49;;;;;;;26.07;13.58;;;;;;;8.05;79.13;144238.37;1834996;77;22140;-64
2021/10/06 01:06:24;;;;;;;22.93;13.35;;;;;;;8.01;79.24;144228.41;1837759;77;28038;-65
2021/10/06 01:09:18;;;;;;;20.95;11.95;;;;;;;8.04;79.33;144235.91;1834986;77;22160;-65
2021/10/06 01:12:12;;;;;;;22.17;12.78;;;;;;;8.00;79.44;144225.88;1835396;77;22157;-64
2021/10/06 01:14:48;;;;;;;23.73;12.88;;;;;;;7.99;79.61;144223.38;1835599;77;22160;-65
2021/10/06 01:17:42;;;;;;;21.02;12.05;;;;;;;7.99;79.74;144223.38;1835222;77;22129;-66
2021/10/06 01:20:24;;;;;;;22.42;12.82;;;;;;;7.97;80.00;144218.38;1853944;77;22151;-65
2021/10/06 01:22:58;;;;;;;21.90;11.83;;;;;;;7.95;80.13;144213.34;1834975;77;22619;-67
2021/10/06 01:25:53;;;;;;;20.10;12.23;;;;;;;7.93;80.33;144207.09;1834966;77;22177;-66
2021/10/06 01:28:54;;;;;;;22.60;14.30;;;;;;;7.93;80.63;144208.34;1834873;77;22157;-66
2021/10/06 01:31:29;;;;;;;23.50;13.88;;;;;;;7.90;80.89;144200.84;1853520;77;22148;-67
2021/10/06 01:34:04;;;;;;;20.52;12.37;;;;;;;7.88;80.96;144195.83;1835006;77;22157;-66
2021/10/06 01:36:39;;;;;;;20.37;11.38;;;;;;;7.86;81.07;144189.56;1834973;77;22160;-64
2021/10/06 01:39:15;;;;;;;23.90;11.65;;;;;;;7.83;81.37;144184.55;1835008;77;22132;-65
2021/10/06 01:41:52;;;;;;;18.45;11.20;;;;;;;7.85;81.39;144187.08;1834913;77;20100;-64
2021/10/06 01:44:27;;;;;;;21.37;12.58;;;;;;;7.82;81.49;144180.83;1834999;77;22129;-66
2021/10/06 01:47:02;;;;;;;18.32;11.10;;;;;;;7.80;81.44;144175.81;1835008;77;22165;-65
2021/10/06 01:49:37;;;;;;;19.98;12.25;;;;;;;7.77;81.57;144168.31;1819451;77;28003;-66
2021/10/06 01:52:14;;;;;;;19.50;11.12;;;;;;;7.78;81.63;144170.80;1835006;77;22120;-65
2021/10/06 01:54:54;;;;;;;20.92;11.50;;;;;;;7.76;81.66;144165.78;1834986;77;23137;-64
2021/10/06 01:57:46;;;;;;;23.02;12.25;;;;;;;7.73;81.74;144159.53;1834884;77;22124;-65
2021/10/06 02:00:21;;;;;;;17.90;11.33;;;;;;;7.71;81.84;144153.27;1835018;77;22128;-65
2021/10/06 02:03:02;;;;;;;21.93;11.63;;;;;;;7.67;82.06;144144.53;1853509;77;22131;-64
2021/10/06 02:05:37;;;;;;;24.70;12.68;;;;;;;7.65;82.23;144138.28;1835002;77;22164;-64
2021/10/06 02:08:14;;;;;;;21.73;12.15;;;;;;;7.59;82.42;144125.75;1834998;77;22124;-66
2021/10/06 02:10:49;;;;;;;21.75;11.78;;;;;;;7.57;82.42;144120.75;1834965;77;22168;-67
2021/10/06 02:13:24;;;;;;;18.52;11.00;;;;;;;7.53;82.85;144109.47;1819345;77;28030;-66
2021/10/06 02:16:18;;;;;;;19.27;10.65;;;;;;;7.54;83.16;144113.25;1853621;77;22132;-66
2021/10/06 02:18:54;;;;;;;21.73;12.03;;;;;;;7.54;83.10;144112.00;1819332;77;28017;-67
2021/10/06 02:21:28;;;;;;;22.25;12.65;;;;;;;7.58;83.13;144123.28;1835054;77;22132;-67
2021/10/06 02:24:05;;;;;;;20.65;11.35;;;;;;;7.54;83.26;144113.25;1853551;77;22156;-66
2021/10/06 02:26:59;;;;;;;19.90;11.43;;;;;;;7.52;83.40;144107.00;1826393;77;28483;-67
2021/10/06 02:29:35;;;;;;;18.73;11.80;;;;;;;7.56;83.55;144117.03;1834897;77;22151;-66
2021/10/06 02:32:10;;;;;;;19.00;11.05;;;;;;;7.53;83.56;144110.77;1834928;77;22183;-65
2021/10/06 02:34:45;;;;;;;26.02;11.35;;;;;;;7.51;83.74;144104.52;1834987;77;22527;-64
2021/10/06 02:37:20;;;;;;;19.70;12.00;;;;;;;7.47;83.94;144095.72;1835003;77;22583;-64
2021/10/06 02:39:55;;;;;;;21.60;12.60;;;;;;;7.46;84.10;144092.00;1834983;77;22590;-63
2021/10/06 02:42:29;;;;;;;21.17;11.95;;;;;;;7.43;84.25;144085.75;1853608;77;22127;-67
2021/10/06 02:45:13;;;;;;;21.35;11.48;;;;;;;7.40;84.38;144078.20;1853421;77;22182;-64
2021/10/06 02:48:07;;;;;;;21.05;11.95;;;;;;;7.37;84.64;144070.70;1819489;77;28054;-65
2021/10/06 02:50:42;;;;;;;16.52;10.53;;;;;;;7.38;84.77;144074.48;1853549;77;22164;-64
2021/10/06 02:53:17;;;;;;;18.20;10.55;;;;;;;7.36;84.78;144069.47;1835012;77;22143;-64
2021/10/06 02:56:12;;;;;;;22.82;11.50;;;;;;;7.32;85.07;144058.20;1834961;77;22551;-64
2021/10/06 02:58:47;;;;;;;19.85;11.78;;;;;;;7.29;85.24;144050.70;1853545;77;22124;-66
2021/10/06 03:01:24;;;;;;;24.92;11.88;;;;;;;7.26;85.49;144043.20;1835009;77;22559;-64
2021/10/06 03:04:19;;;;;;;19.55;12.07;;;;;;;7.22;85.76;144033.19;1835107;77;22561;-67
2021/10/06 03:07:14;;;;;;;23.35;11.20;;;;;;;7.20;86.04;144028.17;1834969;77;22139;-64
2021/10/06 03:09:49;;;;;;;18.37;11.33;;;;;;;7.17;86.04;144023.20;1837866;77;28027;-64
2021/10/06 03:12:24;;;;;;;26.48;11.75;;;;;;;7.17;86.21;144023.20;1834962;77;22165;-67
2021/10/06 03:14:59;;;;;;;20.12;11.70;;;;;;;7.13;86.32;144013.19;1835074;77;22133;-66
2021/10/06 03:17:34;;;;;;;17.10;10.40;;;;;;;7.11;86.55;144008.17;1835084;77;22165;-64
2021/10/06 03:20:12;;;;;;;19.32;11.15;;;;;;;7.09;86.87;144001.92;1835030;77;22153;-68
2021/10/06 03:22:46;;;;;;;19.55;11.10;;;;;;;7.08;86.92;144000.67;1835034;77;22132;-65
2021/10/06 03:25:40;;;;;;;20.50;10.72;;;;;;;7.07;87.22;143996.91;1834985;77;22156;-67
2021/10/06 03:28:15;;;;;;;19.57;10.85;;;;;;;7.05;87.57;143993.19;1816021;79;22594;-65
2021/10/06 03:30:49;;;;;;;20.80;10.82;;;;;;;7.05;87.74;143993.19;1853710;77;22132;-65
2021/10/06 03:33:24;;;;;;;19.57;10.98;;;;;;;7.05;88.02;143991.94;1835142;77;22246;-66
2021/10/06 03:36:05;;;;;;;22.70;11.70;;;;;;;7.05;88.13;143993.19;1834217;77;22194;-66
2021/10/06 03:39:00;;;;;;;19.82;11.70;;;;;;;7.03;88.26;143988.17;1838603;77;22209;-65
2021/10/06 03:41:35;;;;;;;22.15;11.08;;;;;;;7.00;88.54;143980.67;1834992;77;22128;-65
2021/10/06 03:44:09;;;;;;;22.25;11.48;;;;;;;6.98;88.82;143974.42;1835064;77;22161;-65
2021/10/06 03:46:44;;;;;;;19.65;10.75;;;;;;;6.97;89.02;143973.13;1834996;77;22156;-66
2021/10/06 03:49:19;;;;;;;17.98;10.82;;;;;;;6.96;89.19;143970.66;1834967;77;22125;-66
2021/10/06 03:51:54;;;;;;;21.85;11.60;;;;;;;6.95;89.42;143968.17;1835094;77;22168;-67
2021/10/06 03:54:29;;;;;;;19.92;11.35;;;;;;;6.94;89.51;143965.64;1853513;77;22128;-66
2021/10/06 03:57:03;;;;;;;18.25;11.40;;;;;;;6.92;89.60;143960.63;1834967;77;22180;-65
2021/10/06 03:59:44;;;;;;;25.30;11.75;;;;;;;6.91;89.87;143959.39;1853486;77;22208;-65
2021/10/06 04:02:19;;;;;;;21.50;11.57;;;;;;;6.93;89.90;143963.16;1834974;77;22156;-65
2021/10/06 04:04:54;;;;;;;21.00;11.95;;;;;;;6.93;90.12;143963.16;1834959;77;22156;-65
2021/10/06 04:07:29;;;;;;;23.92;11.80;;;;;;;6.92;90.07;143961.92;1853574;77;22155;-65
2021/10/06 04:10:24;;;;;;;24.02;12.55;;;;;;;6.91;90.26;143959.39;1834946;77;22570;-66
2021/10/06 04:13:18;;;;;;;23.15;13.18;;;;;;;6.90;90.41;143956.91;1834870;77;22133;-66
2021/10/06 04:15:53;;;;;;;23.47;12.43;;;;;;;6.92;90.54;143960.63;1822653;77;22207;-64
2021/10/06 04:18:28;;;;;;;20.62;12.33;;;;;;;6.91;90.65;143958.16;1819046;77;22191;-64
2021/10/06 04:21:11;;;;;;;20.37;11.80;;;;;;;6.90;90.76;143956.91;1817577;77;22192;-64
2021/10/06 04:23:46;;;;;;;22.60;12.35;;;;;;;6.91;90.86;143958.16;1837624;77;22179;-66
2021/10/06 04:26:41;;;;;;;23.70;12.73;;;;;;;6.92;90.95;143961.92;1838474;77;22624;-66
2021/10/06 04:29:21;;;;;;;22.22;12.05;;;;;;;6.92;90.92;143961.92;1825488;77;22169;-65
2021/10/06 04:32:03;;;;;;;21.27;11.12;;;;;;;6.94;91.02;143966.87;1816735;77;22604;-69
2021/10/06 04:34:38;;;;;;;22.73;11.45;;;;;;;6.96;91.06;143970.66;1792149;77;28563;-65
2021/10/06 04:37:19;;;;;;;19.70;10.88;;;;;;;7.11;90.88;144008.17;1816703;77;22172;-66
2021/10/06 04:39:53;;;;;;;16.30;9.73;;;;;;;7.71;89.04;144153.27;1817749;77;22165;-66
2021/10/06 04:42:35;;;;;;;26.62;11.97;;;;;;;8.33;86.01;144305.98;1816708;77;22630;-64
2021/10/06 04:45:10;;;;;;;17.67;10.82;;;;;;;8.81;83.62;144423.75;1803712;77;22266;-66
2021/10/06 04:47:45;;;;;;;20.12;10.80;;;;;;;9.23;81.17;144526.44;1829491;77;22216;-66
2021/10/06 04:50:22;;;;;;;22.90;11.08;;;;;;;9.59;79.78;144612.91;1831561;77;22214;-64
2021/10/06 04:52:57;;;;;;;19.27;11.03;;;;;;;9.95;77.54;144701.94;1831433;77;22247;-64
2021/10/06 04:55:34;;;;;;;19.42;9.80;;;;;;;10.20;75.94;144764.62;1820242;77;22590;-68
2021/10/06 04:58:27;;;;;;;19.50;10.58;;;;;;;10.43;75.04;144821.09;1834967;77;22133;-65
2021/10/06 05:01:21;;;;;;;19.27;11.40;;;;;;;10.80;73.93;144911.38;1820690;77;22540;-67
2021/10/06 05:03:56;;;;;;;24.00;11.33;;;;;;;11.17;72.15;145000.44;1820781;77;22140;-65
2021/10/06 05:06:32;;;;;;;26.52;12.58;;;;;;;11.59;70.73;145103.38;1832095;77;22545;-65
2021/10/06 05:09:07;;;;;;;21.48;11.45;;;;;;;11.90;69.15;145180.00;1800833;78;28027;-65
2021/10/06 05:11:42;;;;;;;16.62;10.88;;;;;;;12.16;67.78;145245.31;1853484;77;22283;-65
2021/10/06 05:14:23;;;;;;;15.70;10.38;;;;;;;12.23;66.84;145261.63;1853472;77;22230;-67
2021/10/06 05:16:59;;;;;;;22.82;10.70;;;;;;;12.18;67.01;145249.06;1793201;77;28145;-65
2021/10/06 05:19:34;;;;;;;17.42;10.85;;;;;;;12.38;66.40;145298.05;1819381;77;28023;-67
2021/10/06 05:22:09;;;;;;;16.85;9.10;;;;;;;12.56;65.55;145342.02;1834963;77;22132;-67
2021/10/06 05:24:44;;;;;;;16.60;10.32;;;;;;;12.69;65.33;145373.42;1853502;77;22214;-66
2021/10/06 05:27:19;;;;;;;16.73;9.63;;;;;;;13.01;64.01;145452.59;1834998;77;22144;-66
2021/10/06 05:30:20;;;;;;;19.62;10.58;;;;;;;12.93;63.67;145432.50;1853464;77;22156;-67
2021/10/06 05:32:55;;;;;;;21.77;10.30;;;;;;;12.96;63.53;145440.03;1803611;77;28151;-65
2021/10/06 05:35:36;;;;;;;19.82;9.13;;;;;;;13.24;62.85;145510.39;1815309;77;22145;-66
2021/10/06 05:38:16;;;;;;;16.07;8.95;;;;;;;13.34;62.18;145533.08;1814484;77;22191;-72
2021/10/06 05:40:51;;;;;;;15.53;10.10;;;;;;;13.58;61.75;145593.39;1853664;77;22594;-65
2021/10/06 05:43:26;;;;;;;17.87;10.28;;;;;;;13.92;60.69;145675.13;1835001;77;22157;-65
2021/10/06 05:46:02;;;;;;;18.32;9.48;;;;;;;14.04;59.69;145706.61;1819282;77;27987;-64
2021/10/06 05:48:37;;;;;;;19.57;9.53;;;;;;;14.01;59.77;145699.02;1799991;79;22618;-65
2021/10/06 05:51:13;;;;;;;13.08;8.83;;;;;;;14.35;59.07;145782.06;1832339;77;22246;-65
2021/10/06 05:53:48;;;;;;;16.05;10.32;;;;;;;14.72;57.76;145872.69;1832525;77;22243;-65
2021/10/06 05:56:23;;;;;;;17.10;9.63;;;;;;;15.07;56.78;145958.28;1833270;77;22199;-65
2021/10/06 05:58:58;;;;;;;17.45;9.25;;;;;;;15.08;56.58;145962.02;1851677;77;22198;-66
2021/10/06 06:01:34;;;;;;;18.10;8.63;;;;;;;14.78;57.06;145886.52;1833342;77;22208;-66
2021/10/06 06:04:17;;;;;;;23.12;9.63;;;;;;;14.95;56.83;145929.31;1853506;77;22155;-65
2021/10/06 06:06:52;;;;;;;15.13;8.55;;;;;;;15.29;55.97;146012.38;1834984;77;22144;-66
2021/10/06 06:09:34;;;;;;;15.05;8.43;;;;;;;15.61;54.72;146092.95;1848177;78;22625;-64
2021/10/06 06:12:09;;;;;;;15.83;8.55;;;;;;;15.96;54.24;146177.41;1834891;77;22562;-65
2021/10/06 06:15:05;;;;;;;15.53;8.40;;;;;;;16.03;53.95;146195.05;1834911;77;22152;-64
2021/10/06 06:17:40;;;;;;;15.00;8.70;;;;;;;16.12;53.49;146217.69;1834980;77;22152;-66
2021/10/06 06:20:23;;;;;;;17.85;8.63;;;;;;;16.14;53.08;146222.73;1853571;77;22554;-65
2021/10/06 06:23:16;;;;;;;16.77;8.28;;;;;;;16.19;53.18;146235.33;1831787;77;22659;-67
2021/10/06 06:26:09;;;;;;;15.25;8.25;;;;;;;16.52;52.48;146315.97;1835090;77;22129;-64
2021/10/06 06:29:09;;;;;;;14.93;8.20;;;;;;;16.98;51.27;146429.44;1853432;77;22582;-65
2021/10/06 06:32:04;;;;;;;12.73;7.95;;;;;;;16.64;51.22;146344.97;1853527;77;22166;-66
2021/10/06 06:35:00;;;;;;;23.27;9.25;;;;;;;16.22;52.23;146242.88;1834794;77;20365;-67
2021/10/06 06:37:37;;;;;;;20.00;9.85;;;;;;;16.21;52.84;146240.38;1853453;77;22589;-65
2021/10/06 06:40:14;;;;;;;16.15;8.03;;;;;;;16.70;51.74;146361.31;1853572;77;22159;-66
2021/10/06 06:42:55;;;;;;;14.85;8.48;;;;;;;16.63;51.25;146343.67;1853471;77;22628;-66
2021/10/06 06:45:31;;;;;;;19.25;8.80;;;;;;;16.33;52.31;146268.06;1834779;77;22155;-66
2021/10/06 06:48:06;;;;;;;14.95;7.95;;;;;;;16.41;52.07;146288.22;1834962;77;22136;-66
2021/10/06 06:50:42;;;;;;;18.85;9.05;;;;;;;16.81;51.44;146386.56;1835026;77;22165;-64
2021/10/06 06:53:28;;;;;;;15.23;8.83;;;;;;;17.16;49.89;146472.30;1853447;77;22355;-66
2021/10/06 06:56:23;;;;;;;15.20;7.72;;;;;;;16.81;51.01;146386.56;1853211;77;23795;-66
2021/10/06 06:59:00;;;;;;;14.13;8.03;;;;;;;16.22;52.09;146242.88;1812197;77;22214;-65
2021/10/06 07:01:57;;;;;;;18.15;9.50;;;;;;;16.63;52.10;146342.42;1853547;77;22159;-65
2021/10/06 07:04:52;;;;;;;13.55;8.40;;;;;;;17.24;50.20;146492.45;1810062;77;22222;-65
2021/10/06 07:07:27;;;;;;;14.28;8.20;;;;;;;17.49;49.35;146554.25;1853299;77;22282;-66
2021/10/06 07:10:04;;;;;;;13.55;7.90;;;;;;;17.12;49.81;146464.75;1834902;77;22168;-64
2021/10/06 07:12:45;;;;;;;12.10;7.90;;;;;;;16.80;50.68;146384.06;1834041;77;22157;-66
2021/10/06 07:15:26;;;;;;;17.67;8.98;;;;;;;16.56;51.28;146326.02;1820823;77;22347;-64
2021/10/06 07:18:03;;;;;;;16.67;9.38;;;;;;;16.37;51.49;146279.42;1837493;77;28546;-65
2021/10/06 07:20:45;;;;;;;15.83;9.20;;;;;;;16.71;51.08;146362.58;1847873;78;22633;-66
2021/10/06 07:23:27;;;;;;;16.25;9.30;;;;;;;16.49;51.54;146309.66;1833015;77;22328;-66
2021/10/06 07:26:03;;;;;;;19.23;9.25;;;;;;;16.69;51.33;146358.81;1834492;77;22272;-66
2021/10/06 07:28:57;;;;;;;17.25;8.05;;;;;;;17.35;49.77;146521.47;1834858;77;22554;-65
2021/10/06 07:31:31;;;;;;;15.13;8.60;;;;;;;18.08;48.42;146699.33;1834732;77;22164;-66
2021/10/06 07:34:14;;;;;;;12.85;8.40;;;;;;;18.57;46.91;146821.73;1853365;77;22670;-65
2021/10/06 07:36:57;;;;;;;13.40;8.68;;;;;;;18.14;46.86;146715.75;1853304;77;22227;-65
2021/10/06 07:39:38;;;;;;;15.23;8.30;;;;;;;18.26;46.89;146744.73;1828082;77;22225;-65
2021/10/06 07:42:12;;;;;;;17.17;8.00;;;;;;;18.75;46.37;146865.95;1822883;77;22148;-66
2021/10/06 07:44:48;;;;;;;15.88;8.55;;;;;;;19.28;44.87;146995.94;1828596;77;22147;-65
2021/10/06 07:47:42;;;;;;;15.68;8.68;;;;;;;19.57;44.04;147067.94;1834815;77;22148;-65
2021/10/06 07:50:23;;;;;;;14.68;8.45;;;;;;;19.65;42.93;147088.13;1848100;78;22184;-65
2021/10/06 07:53:04;;;;;;;14.98;8.25;;;;;;;19.26;43.95;146990.92;1834096;77;22610;-66
2021/10/06 07:55:40;;;;;;;14.07;8.28;;;;;;;18.94;44.19;146911.38;1834655;77;22167;-64
2021/10/06 07:58:22;;;;;;;16.70;7.78;;;;;;;18.79;44.42;146876.02;1833818;77;22252;-64
2021/10/06 08:00:57;;;;;;;17.75;7.90;;;;;;;18.34;45.40;146764.95;1853487;77;22140;-64
2021/10/06 08:03:32;;;;;;;15.65;8.03;;;;;;;18.35;45.69;146766.20;1834723;77;22596;-64
2021/10/06 08:06:07;;;;;;;16.42;8.00;;;;;;;18.31;45.74;146757.34;1824975;77;22192;-65
2021/10/06 08:08:41;;;;;;;12.58;6.95;;;;;;;18.56;45.29;146817.94;1828367;77;22175;-64
2021/10/06 08:11:22;;;;;;;10.05;6.80;;;;;;;18.55;44.79;146815.42;1812743;77;22224;-66
2021/10/06 08:13:57;;;;;;;14.33;7.65;;;;;;;18.18;45.48;146724.56;1834879;77;22156;-65
2021/10/06 08:16:51;;;;;;;15.63;7.55;;;;;;;18.03;45.60;146687.97;1834747;77;22152;-67
2021/10/06 08:19:50;;;;;;;14.40;7.40;;;;;;;17.85;45.76;146642.56;1853421;77;22133;-67
2021/10/06 08:22:50;;;;;;;14.43;7.03;;;;;;;17.87;46.34;146648.88;1834081;77;22132;-64
2021/10/06 08:25:25;;;;;;;14.03;7.90;;;;;;;17.48;46.09;146553.00;1834950;77;22141;-65
2021/10/06 08:28:07;;;;;;;11.57;7.50;;;;;;;16.98;47.77;146429.44;1853372;77;22189;-64
2021/10/06 08:30:43;;;;;;;12.63;7.65;;;;;;;16.88;47.99;146405.47;1834879;77;22184;-65
2021/10/06 08:33:37;;;;;;;12.63;7.40;;;;;;;16.80;48.20;146384.06;1853462;77;22152;-65
2021/10/06 08:36:18;;;;;;;15.63;7.30;;;;;;;16.39;48.98;146283.22;1834074;77;22606;-65
2021/10/06 08:38:53;;;;;;;14.80;8.18;;;;;;;16.03;49.23;146195.05;1819038;77;28006;-65
2021/10/06 08:41:31;;;;;;;16.05;7.67;;;;;;;15.96;50.14;146177.41;1834842;77;22620;-66
2021/10/06 08:44:07;;;;;;;11.45;7.37;;;;;;;15.95;49.10;146176.16;1853504;77;22155;-64
2021/10/06 08:47:02;;;;;;;12.70;7.53;;;;;;;15.55;49.29;146077.86;1834943;77;22124;-64
2021/10/06 08:50:03;;;;;;;14.35;6.87;;;;;;;15.18;50.93;145987.19;1853536;77;22580;-63
2021/10/06 08:52:49;;;;;;;13.80;7.40;;;;;;;14.91;51.68;145920.52;1853469;77;22179;-64
2021/10/06 08:55:28;;;;;;;18.37;7.40;;;;;;;14.68;52.01;145862.59;1834919;77;22164;-65
2021/10/06 08:58:09;;;;;;;9.43;5.97;;;;;;;14.69;52.38;145865.14;1833969;77;22262;-64
2021/10/06 09:01:00;;;;;;;11.12;7.00;;;;;;;14.56;51.72;145832.44;1834771;77;22155;-64
2021/10/06 09:03:41;;;;;;;11.80;6.87;;;;;;;14.24;51.26;145754.38;1834025;77;22169;-63
2021/10/06 09:06:23;;;;;;;14.25;6.62;;;;;;;13.95;52.59;145683.94;1834040;77;22199;-65
2021/10/06 09:09:19;;;;;;;10.15;6.25;;;;;;;13.89;53.44;145668.83;1853345;77;22207;-65
2021/10/06 09:11:54;;;;;;;12.00;6.42;;;;;;;13.86;53.26;145661.30;1835107;77;22149;-64
2021/10/06 09:17:16;;;;;;;16.55;6.40;;;;;;;13.54;53.38;145583.36;1834699;77;22631;-64
2021/10/06 09:19:57;;;;;;;12.40;6.65;;;;;;;13.40;53.55;145549.39;1833970;77;22188;-65
2021/10/06 09:22:31;;;;;;;19.70;6.17;;;;;;;13.24;53.31;145510.39;1834936;77;22156;-65
2021/10/06 09:25:09;;;;;;;20.43;5.53;;;;;;;13.20;50.48;145500.38;1834930;77;22128;-64
2021/10/06 09:27:42;;;;;;;16.65;6.67;;;;;;;13.20;50.70;145499.06;1837662;77;28095;-64
2021/10/06 09:30:17;;;;;;;9.58;4.83;;;;;;;13.30;51.11;145523.00;1834908;77;22197;-65
2021/10/06 09:32:52;;;;;;;11.40;5.28;;;;;;;13.18;47.96;145495.33;1834704;77;22172;-65
2021/10/06 09:35:27;;;;;;;13.85;5.47;;;;;;;13.10;48.90;145475.23;1834862;77;22136;-64
2021/10/06 09:38:09;;;;;;;20.30;5.90;;;;;;;13.00;50.16;145450.05;1834014;77;22177;-64
2021/10/06 09:41:43;;;;;;;15.03;5.37;;;;;;;12.88;49.20;145419.94;1853427;77;22612;-66
2021/10/06 09:44:23;;;;;;;8.63;5.70;;;;;;;12.75;50.52;145389.77;1834990;77;22177;-64
2021/10/06 09:47:01;;;;;;;14.73;5.87;;;;;;;12.76;52.11;145392.27;1835046;77;22160;-69
2021/10/06 09:49:38;;;;;;;17.32;5.55;;;;;;;12.82;49.99;145406.08;1834737;77;22601;-65
2021/10/06 09:52:27;;;;;;;13.35;5.40;;;;;;;12.81;50.11;145404.83;1843197;78;22201;-63
2021/10/06 09:55:06;;;;;;;13.13;5.70;;;;;;;12.88;47.73;145419.94;1835106;77;22151;-66
2021/10/06 09:58:02;;;;;;;11.20;5.40;;;;;;;12.97;48.49;145443.77;1834969;77;22156;-64
2021/10/06 10:00:57;;;;;;;7.97;4.12;;;;;;;13.11;48.53;145477.72;1834997;77;22140;-65
2021/10/06 10:03:38;;;;;;;11.90;4.47;;;;;;;13.20;45.87;145500.38;1853416;77;22183;-65
2021/10/06 10:06:14;;;;;;;13.58;4.35;;;;;;;13.29;43.18;145521.75;1834787;77;20108;-66
2021/10/06 10:08:50;;;;;;;13.70;4.03;;;;;;;13.26;44.75;145514.19;1853315;77;22139;-65
2021/10/06 10:11:35;;;;;;;8.10;4.40;;;;;;;13.25;45.25;145512.94;1853441;77;22199;-65
2021/10/06 10:14:18;;;;;;;11.22;5.22;;;;;;;13.32;45.42;145529.28;1837896;77;28120;-65
2021/10/06 10:17:11;;;;;;;9.00;5.30;;;;;;;13.25;45.77;145512.94;1835005;77;22152;-65
2021/10/06 10:20:14;;;;;;;7.62;4.70;;;;;;;13.15;45.59;145487.80;1834819;77;22128;-65
2021/10/06 10:22:58;;;;;;;10.45;5.20;;;;;;;13.27;45.83;145516.72;1834165;77;22640;-64
2021/10/06 10:28:39;;;;;;;13.18;5.10;;;;;;;13.62;44.46;145603.47;1834083;77;22168;-64
2021/10/06 10:31:40;;;;;;;20.43;5.08;;;;;;;13.48;45.88;145567.00;1853502;77;22123;-63
2021/10/06 10:35:10;;;;;;;13.72;4.75;;;;;;;13.35;45.02;145535.58;1853521;77;22208;-64
2021/10/06 10:37:59;;;;;;;11.10;4.47;;;;;;;13.27;45.48;145515.47;1834911;77;22125;-63
2021/10/06 10:40:54;;;;;;;7.58;3.87;;;;;;;13.17;43.37;145491.53;1853367;77;22135;-63
2021/10/06 10:43:57;;;;;;;13.25;4.67;;;;;;;13.16;43.91;145490.28;1834809;77;22180;-66
2021/10/06 10:47:02;;;;;;;11.68;4.35;;;;;;;13.20;44.80;145500.38;1853553;77;22304;-64
2021/10/06 10:49:52;;;;;;;14.10;5.33;;;;;;;13.20;45.23;145500.38;1834796;77;22184;-65
2021/10/06 10:52:48;;;;;;;11.28;5.20;;;;;;;13.06;45.35;145465.16;1834771;77;22156;-64
2021/10/06 10:55:45;;;;;;;13.35;4.95;;;;;;;13.03;46.01;145458.87;1834977;77;22152;-64
2021/10/06 10:58:33;;;;;;;16.17;5.97;;;;;;;13.06;46.48;145463.91;1834925;77;22140;-64
2021/10/06 11:01:15;;;;;;;13.55;5.47;;;;;;;13.14;46.07;145485.25;1834140;77;22184;-64
2021/10/06 11:04:31;;;;;;;13.18;5.12;;;;;;;13.17;46.09;145492.78;1831605;77;22231;-66
2021/10/06 11:07:27;;;;;;;12.05;4.97;;;;;;;13.20;45.24;145500.38;1811520;77;28416;-66
2021/10/06 11:10:17;;;;;;;13.55;5.35;;;;;;;13.25;44.93;145511.64;1834824;77;22148;-65
2021/10/06 11:13:05;;;;;;;10.75;4.97;;;;;;;13.21;45.22;145502.86;1853570;77;22131;-65
2021/10/06 11:15:56;;;;;;;15.15;5.15;;;;;;;13.21;45.07;145502.86;1834974;77;22164;-64
2021/10/06 11:21:38;;;;;;;10.82;4.87;;;;;;;13.04;45.09;145461.37;1837579;77;27992;-65
2021/10/06 11:24:23;;;;;;;10.85;5.20;;;;;;;13.04;45.38;145460.13;1835018;77;22124;-65
2021/10/06 11:27:04;;;;;;;13.25;4.90;;;;;;;13.02;45.80;145456.33;1834184;77;22575;-64
2021/10/06 11:29:50;;;;;;;13.62;4.78;;;;;;;13.08;46.00;145468.91;1853779;77;22691;-66
2021/10/06 11:32:53;;;;;;;14.60;4.92;;;;;;;13.13;45.62;145482.75;1834819;77;22144;-64
2021/10/06 11:35:34;;;;;;;8.95;4.33;;;;;;;13.11;45.56;145477.72;1833985;77;22201;-65
2021/10/06 11:38:29;;;;;;;13.83;4.78;;;;;;;13.13;45.76;145481.52;1834911;77;22136;-65
2021/10/06 11:41:23;;;;;;;14.30;4.65;;;;;;;13.04;46.29;145460.13;1834890;77;22167;-65
2021/10/06 11:43:58;;;;;;;8.28;4.65;;;;;;;12.89;46.36;145423.67;1853482;77;22292;-64
2021/10/06 11:46:57;;;;;;;9.70;4.28;;;;;;;12.71;46.17;145379.69;1834945;77;22136;-66
2021/10/06 11:49:51;;;;;;;13.68;5.10;;;;;;;12.55;46.87;145340.77;1834986;77;22133;-64
2021/10/06 11:52:26;;;;;;;12.13;5.55;;;;;;;12.48;47.28;145321.92;1834896;77;22133;-65
2021/10/06 11:55:01;;;;;;;12.30;5.05;;;;;;;12.52;47.20;145333.23;1834985;77;22161;-64
2021/10/06 11:57:56;;;;;;;11.85;4.62;;;;;;;12.77;45.58;145394.80;1834555;77;22244;-63
2021/10/06 12:00:43;;;;;;;10.55;5.47;;;;;;;13.02;45.05;145456.33;1834756;77;22136;-64
2021/10/06 12:03:41;;;;;;;16.60;4.85;;;;;;;13.21;44.64;145502.86;1834873;77;22140;-66
2021/10/06 12:06:36;;;;;;;10.70;5.33;;;;;;;13.49;44.15;145570.80;1853476;77;22163;-64
2021/10/06 12:09:15;;;;;;;13.83;4.20;;;;;;;13.62;42.44;145603.47;1853464;77;22594;-64
2021/10/06 12:11:49;;;;;;;14.90;4.67;;;;;;;13.71;41.75;145623.58;1853532;77;22207;-65
2021/10/06 12:14:29;;;;;;;6.60;3.77;;;;;;;13.82;42.19;145651.27;1853509;77;22555;-65
2021/10/06 12:17:27;;;;;;;8.73;4.12;;;;;;;13.99;42.00;145694.03;1834954;77;22124;-65
2021/10/06 12:20:13;;;;;;;13.98;4.45;;;;;;;14.18;41.56;145739.30;1835024;77;22689;-65
2021/10/06 12:22:56;;;;;;;14.10;4.92;;;;;;;14.36;41.55;145784.56;1837626;77;27983;-64
2021/10/06 12:25:33;;;;;;;10.15;4.45;;;;;;;14.29;40.99;145766.94;1853469;77;22155;-65
2021/10/06 12:28:32;;;;;;;14.38;4.35;;;;;;;14.22;40.71;145749.33;1834752;77;22125;-66
2021/10/06 12:31:30;;;;;;;12.28;5.00;;;;;;;14.14;40.86;145730.47;1837622;77;27981;-64
2021/10/06 12:34:25;;;;;;;15.03;5.05;;;;;;;14.19;41.43;145741.78;1834884;77;22161;-63
2021/10/06 12:37:07;;;;;;;7.65;4.00;;;;;;;14.37;41.02;145785.81;1834112;77;22199;-63